Blun, Georgia
Current Conditions -  °F | °C
As of 4:55 PM on Thursday 27 Nov 2014 (Local Time) from KSBO Reporting Station
Clear Clear  
Wind Chill: 52°   Ceiling: Unl
Heat Index: 52°   Visibility: 10mi
Dew Point: 34°   Wind: 10mph
Humidity: 50%   Direction: 310°NW
Pressure: 30.24"   Gusts: 20mph
Location:  32.5371°N, 82.3457°W
Report Text: KSBO 272155Z AUTO 31009G17KT 10SM CLR 11/01 A3024 RMK AO2
Loading
Personal Weather Stations






























Interactive Weather Map New forecast layout! Learn more

10-Day Weather Forecast

Advertisements
Track Severe Weather on mobile